Offbeat — 2JMI2 — position and weather

sailwx.info

Track history (hours):
 
Tides and Currents Weather Stations Pressure Air Temp Water Temp Dewpoint Dewpoint Depression Visibility Wind Speed Wind Dir Waves Ship Positions

Offbeat

Last reported at 2018-Feb-18 15:14 UTC. Time now 2018-Feb-21 19:33 UTC.
Position N 50°52' W 001°19'.

Length 14 m.

Type: Sailing vessel. MMSI: 235117123.

Date/timePositionNaut miles runAvg speedWind from/ knotsBaromVisibWave heightAir tempDewpointWater temp
2018-Feb-18 15:14N 50°52' W 001°19'1 5.8
2018-Feb-18 15:00N 50°50' W 001°19'4 7.3
2018-Feb-18 14:30N 50°47' W 001°18'1 0.4
2018-Feb-18 12:00N 50°46' W 001°18'2 3.4
2018-Feb-18 11:30N 50°47' W 001°18'2 3.3
2018-Feb-18 11:00N 50°49' W 001°17'1 1.6
2018-Feb-18 10:30N 50°49' W 001°18'1 2.3
2018-Feb-18 10:00N 50°50' W 001°19'1 2.3
2018-Feb-18 09:27N 50°52' W 001°19'0 0.0
2018-Feb-17 18:53N 50°52' W 001°19'0 0.0
2018-Feb-17 18:29N 50°52' W 001°19'  
Track history (hours):
 
Tides and Currents Weather Stations Pressure Air Temp Water Temp Dewpoint Dewpoint Depression Visibility Wind Speed Wind Dir Waves Ship Positions

Offbeat

Last reported at 2018-Feb-18 15:14 UTC. Time now 2018-Feb-21 19:33 UTC.
Position N 50°52' W 001°19'.

Length 14 m.

Type: Sailing vessel. MMSI: 235117123.

Date/timePositionNaut miles runAvg speedWind from/ knotsBaromVisibWave heightAir tempDewpointWater temp
2018-Feb-18 15:14N 50°52' W 001°19'1 5.8
2018-Feb-18 15:00N 50°50' W 001°19'4 7.3
2018-Feb-18 14:30N 50°47' W 001°18'1 0.4
2018-Feb-18 12:00N 50°46' W 001°18'2 3.4
2018-Feb-18 11:30N 50°47' W 001°18'2 3.3
2018-Feb-18 11:00N 50°49' W 001°17'1 1.6
2018-Feb-18 10:30N 50°49' W 001°18'1 2.3
2018-Feb-18 10:00N 50°50' W 001°19'1 2.3
2018-Feb-18 09:27N 50°52' W 001°19'0 0.0
2018-Feb-17 18:53N 50°52' W 001°19'0 0.0
2018-Feb-17 18:29N 50°52' W 001°19'  

Dump ship's entire track history